sensor_id;sensor_type;location;lat;lon;timestamp;pressure;altitude;pressure_sealevel;temperature;humidity
22000;BME280;11164;48.818;2.322;2023-08-30T00:01:10;100110.66;;;18.05;39.92
22000;BME280;11164;48.818;2.322;2023-08-30T00:03:36;100113.84;;;17.97;40.28
22000;BME280;11164;48.818;2.322;2023-08-30T00:06:05;100113.47;;;17.83;41.07
22000;BME280;11164;48.818;2.322;2023-08-30T00:08:32;100106.28;;;17.72;40.89
22000;BME280;11164;48.818;2.322;2023-08-30T00:10:58;100100.59;;;17.78;40.74
22000;BME280;11164;48.818;2.322;2023-08-30T00:13:25;100102.66;;;17.93;40.70
22000;BME280;11164;48.818;2.322;2023-08-30T00:15:50;100107.69;;;18.07;40.29
22000;BME280;11164;48.818;2.322;2023-08-30T00:18:16;100099.56;;;18.17;39.98
22000;BME280;11164;48.818;2.322;2023-08-30T00:20:42;100098.50;;;18.23;40.16
22000;BME280;11164;48.818;2.322;2023-08-30T00:23:08;100086.84;;;18.28;40.20
22000;BME280;11164;48.818;2.322;2023-08-30T00:25:33;100089.00;;;18.26;40.23
22000;BME280;11164;48.818;2.322;2023-08-30T00:27:58;100086.03;;;18.27;40.08
22000;BME280;11164;48.818;2.322;2023-08-30T00:30:24;100087.25;;;18.14;40.17
22000;BME280;11164;48.818;2.322;2023-08-30T00:32:49;100077.38;;;18.03;40.53
22000;BME280;11164;48.818;2.322;2023-08-30T00:35:14;100076.31;;;18.09;40.18
22000;BME280;11164;48.818;2.322;2023-08-30T00:37:40;100077.41;;;18.08;40.30
22000;BME280;11164;48.818;2.322;2023-08-30T00:40:05;100066.50;;;18.08;40.40
22000;BME280;11164;48.818;2.322;2023-08-30T00:42:31;100074.41;;;18.10;40.53
22000;BME280;11164;48.818;2.322;2023-08-30T00:44:57;100070.81;;;18.04;40.70
22000;BME280;11164;48.818;2.322;2023-08-30T00:47:23;100057.69;;;18.01;40.56
22000;BME280;11164;48.818;2.322;2023-08-30T00:49:48;100072.53;;;18.15;40.44
22000;BME280;11164;48.818;2.322;2023-08-30T00:52:14;100067.88;;;18.11;40.82
22000;BME280;11164;48.818;2.322;2023-08-30T00:54:40;100065.16;;;18.16;40.79
22000;BME280;11164;48.818;2.322;2023-08-30T00:57:06;100057.81;;;18.16;40.54
22000;BME280;11164;48.818;2.322;2023-08-30T00:59:32;100059.16;;;18.14;40.71
22000;BME280;11164;48.818;2.322;2023-08-30T01:01:59;100053.94;;;18.07;41.05
22000;BME280;11164;48.818;2.322;2023-08-30T01:04:24;100051.47;;;18.06;40.74
22000;BME280;11164;48.818;2.322;2023-08-30T01:06:50;100050.56;;;17.95;41.00
22000;BME280;11164;48.818;2.322;2023-08-30T01:09:16;100047.63;;;18.02;41.35
22000;BME280;11164;48.818;2.322;2023-08-30T01:12:04;100049.34;;;18.18;41.58
22000;BME280;11164;48.818;2.322;2023-08-30T01:14:53;100043.41;;;18.26;41.54
22000;BME280;11164;48.818;2.322;2023-08-30T01:17:23;100039.66;;;18.32;40.91
22000;BME280;11164;48.818;2.322;2023-08-30T01:20:04;100033.66;;;18.35;41.15
22000;BME280;11164;48.818;2.322;2023-08-30T01:25:32;100033.03;;;18.23;41.48
22000;BME280;11164;48.818;2.322;2023-08-30T01:28:04;100024.25;;;18.16;40.94
22000;BME280;11164;48.818;2.322;2023-08-30T01:30:34;100025.94;;;18.22;41.33
22000;BME280;11164;48.818;2.322;2023-08-30T01:33:02;100011.69;;;18.15;41.04
22000;BME280;11164;48.818;2.322;2023-08-30T01:35:29;100025.38;;;18.25;41.25
22000;BME280;11164;48.818;2.322;2023-08-30T01:38:02;100027.81;;;18.22;41.14
22000;BME280;11164;48.818;2.322;2023-08-30T01:40:29;100018.75;;;18.11;41.37
22000;BME280;11164;48.818;2.322;2023-08-30T01:42:55;100015.50;;;18.14;41.24
22000;BME280;11164;48.818;2.322;2023-08-30T01:45:23;100017.81;;;18.27;41.00
22000;BME280;11164;48.818;2.322;2023-08-30T01:47:49;100017.28;;;18.35;40.90
22000;BME280;11164;48.818;2.322;2023-08-30T01:50:17;100012.41;;;18.43;41.02
22000;BME280;11164;48.818;2.322;2023-08-30T01:52:44;100005.84;;;18.38;41.31
22000;BME280;11164;48.818;2.322;2023-08-30T01:55:13;99999.00;;;18.31;41.27
22000;BME280;11164;48.818;2.322;2023-08-30T01:57:39;100004.50;;;18.41;40.96
22000;BME280;11164;48.818;2.322;2023-08-30T02:00:05;100002.28;;;18.33;40.98
22000;BME280;11164;48.818;2.322;2023-08-30T02:02:31;99994.63;;;18.30;41.44
22000;BME280;11164;48.818;2.322;2023-08-30T02:04:56;99995.72;;;18.34;41.08
22000;BME280;11164;48.818;2.322;2023-08-30T02:07:31;100000.69;;;18.42;40.97
22000;BME280;11164;48.818;2.322;2023-08-30T02:10:02;99996.00;;;18.37;41.30
22000;BME280;11164;48.818;2.322;2023-08-30T02:12:39;99997.63;;;18.33;41.13
22000;BME280;11164;48.818;2.322;2023-08-30T02:15:07;100000.06;;;18.30;41.51
22000;BME280;11164;48.818;2.322;2023-08-30T02:17:38;99992.63;;;18.20;41.53
22000;BME280;11164;48.818;2.322;2023-08-30T02:20:05;99983.66;;;18.25;41.26
22000;BME280;11164;48.818;2.322;2023-08-30T02:22:31;99999.00;;;18.31;41.52
22000;BME280;11164;48.818;2.322;2023-08-30T02:24:57;99989.16;;;18.30;41.30
22000;BME280;11164;48.818;2.322;2023-08-30T02:27:23;99994.66;;;18.35;41.30
22000;BME280;11164;48.818;2.322;2023-08-30T02:29:48;99993.25;;;18.27;41.27
22000;BME280;11164;48.818;2.322;2023-08-30T02:32:13;100002.44;;;18.21;41.46
22000;BME280;11164;48.818;2.322;2023-08-30T02:34:40;99996.44;;;18.19;41.44
22000;BME280;11164;48.818;2.322;2023-08-30T02:37:05;99993.41;;;18.10;41.54
22000;BME280;11164;48.818;2.322;2023-08-30T02:39:30;99990.34;;;18.02;41.89
22000;BME280;11164;48.818;2.322;2023-08-30T02:41:56;99993.59;;;17.98;41.89
22000;BME280;11164;48.818;2.322;2023-08-30T02:44:21;99984.66;;;18.08;41.35
22000;BME280;11164;48.818;2.322;2023-08-30T02:46:46;99984.97;;;18.17;41.59
22000;BME280;11164;48.818;2.322;2023-08-30T02:49:12;99982.81;;;18.24;41.37
22000;BME280;11164;48.818;2.322;2023-08-30T02:51:37;99984.44;;;18.25;41.12
22000;BME280;11164;48.818;2.322;2023-08-30T02:54:02;99985.28;;;18.21;41.43
22000;BME280;11164;48.818;2.322;2023-08-30T02:56:28;99986.53;;;18.08;41.48
22000;BME280;11164;48.818;2.322;2023-08-30T02:58:53;99996.06;;;18.00;41.91
22000;BME280;11164;48.818;2.322;2023-08-30T03:01:18;99990.78;;;17.88;41.65
22000;BME280;11164;48.818;2.322;2023-08-30T03:03:45;99994.09;;;17.95;41.64
22000;BME280;11164;48.818;2.322;2023-08-30T03:06:10;99992.50;;;17.99;41.69
22000;BME280;11164;48.818;2.322;2023-08-30T03:08:36;99991.59;;;17.89;42.00
22000;BME280;11164;48.818;2.322;2023-08-30T03:11:09;99996.25;;;17.88;41.72
22000;BME280;11164;48.818;2.322;2023-08-30T03:13:34;100000.88;;;17.88;42.01
22000;BME280;11164;48.818;2.322;2023-08-30T03:16:00;99988.56;;;17.85;41.75
22000;BME280;11164;48.818;2.322;2023-08-30T03:18:25;99983.59;;;17.72;42.34
22000;BME280;11164;48.818;2.322;2023-08-30T03:21:00;99993.22;;;17.85;42.48
22000;BME280;11164;48.818;2.322;2023-08-30T03:23:26;99988.41;;;17.97;41.63
22000;BME280;11164;48.818;2.322;2023-08-30T03:25:51;99987.31;;;17.98;41.80
22000;BME280;11164;48.818;2.322;2023-08-30T03:28:16;99985.16;;;17.62;42.38
22000;BME280;11164;48.818;2.322;2023-08-30T03:30:42;99989.28;;;17.38;43.14
22000;BME280;11164;48.818;2.322;2023-08-30T03:33:07;99985.31;;;17.51;42.98
22000;BME280;11164;48.818;2.322;2023-08-30T03:35:34;99989.31;;;17.43;42.88
22000;BME280;11164;48.818;2.322;2023-08-30T03:38:00;99974.97;;;17.48;42.55
22000;BME280;11164;48.818;2.322;2023-08-30T03:40:25;99977.59;;;17.75;42.16
22000;BME280;11164;48.818;2.322;2023-08-30T03:42:52;99975.13;;;17.73;42.34
22000;BME280;11164;48.818;2.322;2023-08-30T03:45:18;99969.38;;;17.70;42.57
22000;BME280;11164;48.818;2.322;2023-08-30T03:47:43;99969.75;;;17.84;42.70
22000;BME280;11164;48.818;2.322;2023-08-30T03:50:08;99970.38;;;17.96;42.33
22000;BME280;11164;48.818;2.322;2023-08-30T03:52:34;99965.97;;;17.90;42.16
22000;BME280;11164;48.818;2.322;2023-08-30T03:55:00;99971.19;;;17.91;42.38
22000;BME280;11164;48.818;2.322;2023-08-30T03:57:26;99967.91;;;17.89;42.42
22000;BME280;11164;48.818;2.322;2023-08-30T03:59:51;99978.16;;;17.72;43.17
22000;BME280;11164;48.818;2.322;2023-08-30T04:02:16;99971.38;;;17.79;43.07
22000;BME280;11164;48.818;2.322;2023-08-30T04:04:42;99969.56;;;17.53;43.40
22000;BME280;11164;48.818;2.322;2023-08-30T04:07:07;99968.75;;;17.57;43.73
22000;BME280;11164;48.818;2.322;2023-08-30T04:09:32;99957.06;;;17.62;43.31
22000;BME280;11164;48.818;2.322;2023-08-30T04:11:58;99965.06;;;17.74;43.22
22000;BME280;11164;48.818;2.322;2023-08-30T04:14:24;99961.84;;;17.87;42.75
22000;BME280;11164;48.818;2.322;2023-08-30T04:16:49;99966.09;;;17.68;43.67
22000;BME280;11164;48.818;2.322;2023-08-30T04:19:15;99950.84;;;17.67;43.50
22000;BME280;11164;48.818;2.322;2023-08-30T04:21:40;99968.56;;;17.69;43.32
22000;BME280;11164;48.818;2.322;2023-08-30T04:24:06;99966.91;;;17.63;43.80
22000;BME280;11164;48.818;2.322;2023-08-30T04:26:31;99955.03;;;17.47;44.00
22000;BME280;11164;48.818;2.322;2023-08-30T04:28:56;99957.00;;;17.52;44.00
22000;BME280;11164;48.818;2.322;2023-08-30T04:31:22;99951.78;;;17.50;43.96
22000;BME280;11164;48.818;2.322;2023-08-30T04:33:47;99946.97;;;17.62;43.85
22000;BME280;11164;48.818;2.322;2023-08-30T04:36:12;99943.91;;;17.54;44.08
22000;BME280;11164;48.818;2.322;2023-08-30T04:38:37;99933.59;;;17.61;43.88
22000;BME280;11164;48.818;2.322;2023-08-30T04:41:03;99931.66;;;17.51;44.11
22000;BME280;11164;48.818;2.322;2023-08-30T04:43:28;99935.06;;;17.41;44.48
22000;BME280;11164;48.818;2.322;2023-08-30T04:45:54;99928.69;;;17.58;44.07
22000;BME280;11164;48.818;2.322;2023-08-30T04:48:19;99933.69;;;17.71;43.81
22000;BME280;11164;48.818;2.322;2023-08-30T04:50:44;99930.13;;;17.71;43.87
22000;BME280;11164;48.818;2.322;2023-08-30T04:53:10;99932.38;;;17.79;43.46
22000;BME280;11164;48.818;2.322;2023-08-30T04:55:35;99932.78;;;18.03;43.39
22000;BME280;11164;48.818;2.322;2023-08-30T04:58:00;99922.69;;;18.04;43.65
22000;BME280;11164;48.818;2.322;2023-08-30T05:00:26;99931.16;;;18.02;43.42
22000;BME280;11164;48.818;2.322;2023-08-30T05:02:51;99919.06;;;17.88;43.66
22000;BME280;11164;48.818;2.322;2023-08-30T05:05:17;99924.41;;;17.67;44.33
22000;BME280;11164;48.818;2.322;2023-08-30T05:07:42;99932.34;;;17.74;44.43
22000;BME280;11164;48.818;2.322;2023-08-30T05:10:08;99926.34;;;17.72;44.60
22000;BME280;11164;48.818;2.322;2023-08-30T05:12:36;99921.69;;;17.72;44.47
22000;BME280;11164;48.818;2.322;2023-08-30T05:15:02;99917.16;;;17.88;44.07
22000;BME280;11164;48.818;2.322;2023-08-30T05:17:30;99919.63;;;17.90;44.00
22000;BME280;11164;48.818;2.322;2023-08-30T05:19:55;99916.56;;;17.81;44.19
22000;BME280;11164;48.818;2.322;2023-08-30T05:22:20;99926.69;;;17.86;44.38
22000;BME280;11164;48.818;2.322;2023-08-30T05:24:46;99916.34;;;17.88;44.45
22000;BME280;11164;48.818;2.322;2023-08-30T05:27:11;99915.31;;;17.99;44.09
22000;BME280;11164;48.818;2.322;2023-08-30T05:29:38;99920.56;;;18.16;43.94
22000;BME280;11164;48.818;2.322;2023-08-30T05:32:03;99921.44;;;18.27;43.58
22000;BME280;11164;48.818;2.322;2023-08-30T05:34:29;99922.88;;;18.34;43.44
22000;BME280;11164;48.818;2.322;2023-08-30T05:36:54;99918.25;;;18.40;43.18
22000;BME280;11164;48.818;2.322;2023-08-30T05:39:19;99925.03;;;18.32;43.62
22000;BME280;11164;48.818;2.322;2023-08-30T05:41:45;99924.41;;;18.20;43.88
22000;BME280;11164;48.818;2.322;2023-08-30T05:44:10;99930.72;;;18.26;43.90
22000;BME280;11164;48.818;2.322;2023-08-30T05:46:35;99927.13;;;18.20;44.21
22000;BME280;11164;48.818;2.322;2023-08-30T05:49:01;99929.81;;;18.10;44.35
22000;BME280;11164;48.818;2.322;2023-08-30T05:51:28;99922.72;;;18.09;44.16
22000;BME280;11164;48.818;2.322;2023-08-30T05:53:53;99934.94;;;18.01;44.50
22000;BME280;11164;48.818;2.322;2023-08-30T05:56:19;99934.72;;;18.08;44.18
22000;BME280;11164;48.818;2.322;2023-08-30T05:58:44;99925.09;;;17.95;44.52
22000;BME280;11164;48.818;2.322;2023-08-30T06:01:09;99934.72;;;18.08;44.13
22000;BME280;11164;48.818;2.322;2023-08-30T06:03:35;99938.47;;;17.96;44.36
22000;BME280;11164;48.818;2.322;2023-08-30T06:06:00;99939.06;;;18.04;44.45
22000;BME280;11164;48.818;2.322;2023-08-30T06:08:26;99939.88;;;18.04;44.23
22000;BME280;11164;48.818;2.322;2023-08-30T06:10:52;99943.06;;;17.86;44.63
22000;BME280;11164;48.818;2.322;2023-08-30T06:13:17;99946.16;;;17.99;44.92
22000;BME280;11164;48.818;2.322;2023-08-30T06:15:43;99942.69;;;18.19;44.12
22000;BME280;11164;48.818;2.322;2023-08-30T06:18:10;99941.84;;;17.71;45.52
22000;BME280;11164;48.818;2.322;2023-08-30T06:20:35;99954.94;;;17.69;45.58
22000;BME280;11164;48.818;2.322;2023-08-30T06:23:03;99947.09;;;17.78;45.27
22000;BME280;11164;48.818;2.322;2023-08-30T06:25:28;99943.91;;;17.91;45.16
22000;BME280;11164;48.818;2.322;2023-08-30T06:27:58;99949.41;;;17.96;45.92
22000;BME280;11164;48.818;2.322;2023-08-30T06:30:28;99951.25;;;17.86;46.71
22000;BME280;11164;48.818;2.322;2023-08-30T06:32:54;99943.31;;;17.84;45.99
22000;BME280;11164;48.818;2.322;2023-08-30T06:35:20;99936.34;;;18.04;45.18
22000;BME280;11164;48.818;2.322;2023-08-30T06:37:45;99942.59;;;18.04;45.47
22000;BME280;11164;48.818;2.322;2023-08-30T06:40:11;99951.13;;;18.18;44.95
22000;BME280;11164;48.818;2.322;2023-08-30T06:42:36;99945.69;;;18.18;45.49
22000;BME280;11164;48.818;2.322;2023-08-30T06:45:02;99942.22;;;18.28;45.41
22000;BME280;11164;48.818;2.322;2023-08-30T06:47:28;99950.28;;;18.12;45.57
22000;BME280;11164;48.818;2.322;2023-08-30T06:49:53;99951.94;;;18.13;45.63
22000;BME280;11164;48.818;2.322;2023-08-30T06:52:18;99957.88;;;18.00;45.98
22000;BME280;11164;48.818;2.322;2023-08-30T06:54:44;99957.00;;;17.89;46.08
22000;BME280;11164;48.818;2.322;2023-08-30T06:57:09;99945.59;;;18.03;45.89
22000;BME280;11164;48.818;2.322;2023-08-30T06:59:34;99951.69;;;18.20;45.41
22000;BME280;11164;48.818;2.322;2023-08-30T07:02:00;99959.63;;;18.27;45.54
22000;BME280;11164;48.818;2.322;2023-08-30T07:04:26;99960.00;;;18.41;45.17
22000;BME280;11164;48.818;2.322;2023-08-30T07:06:52;99956.66;;;18.28;45.60
22000;BME280;11164;48.818;2.322;2023-08-30T07:09:17;99958.94;;;18.47;44.95
22000;BME280;11164;48.818;2.322;2023-08-30T07:11:43;99969.06;;;18.56;44.99
22000;BME280;11164;48.818;2.322;2023-08-30T07:14:10;99955.19;;;18.10;46.04
22000;BME280;11164;48.818;2.322;2023-08-30T07:16:35;99958.69;;;18.53;45.03
22000;BME280;11164;48.818;2.322;2023-08-30T07:19:00;99960.84;;;18.41;45.25
22000;BME280;11164;48.818;2.322;2023-08-30T07:21:27;99962.25;;;18.59;44.91
22000;BME280;11164;48.818;2.322;2023-08-30T07:23:52;99961.50;;;18.84;44.42
22000;BME280;11164;48.818;2.322;2023-08-30T07:26:18;99961.50;;;18.89;44.81
22000;BME280;11164;48.818;2.322;2023-08-30T07:28:45;99959.28;;;18.61;45.00
22000;BME280;11164;48.818;2.322;2023-08-30T07:31:10;99950.56;;;18.79;44.58
22000;BME280;11164;48.818;2.322;2023-08-30T07:33:39;99957.47;;;19.02;44.44
22000;BME280;11164;48.818;2.322;2023-08-30T07:36:04;99954.44;;;18.93;44.83
22000;BME280;11164;48.818;2.322;2023-08-30T07:38:30;99954.47;;;19.19;44.14
22000;BME280;11164;48.818;2.322;2023-08-30T07:40:55;99949.28;;;19.38;43.93
22000;BME280;11164;48.818;2.322;2023-08-30T07:43:21;99952.59;;;19.45;43.82
22000;BME280;11164;48.818;2.322;2023-08-30T07:45:47;99949.28;;;19.59;43.68
22000;BME280;11164;48.818;2.322;2023-08-30T07:48:12;99943.75;;;20.10;42.48
22000;BME280;11164;48.818;2.322;2023-08-30T07:50:37;99953.50;;;20.37;41.80
22000;BME280;11164;48.818;2.322;2023-08-30T07:53:04;99951.78;;;20.61;41.55
22000;BME280;11164;48.818;2.322;2023-08-30T07:55:30;99959.91;;;20.82;41.38
22000;BME280;11164;48.818;2.322;2023-08-30T07:57:56;99958.19;;;20.96;41.11
22000;BME280;11164;48.818;2.322;2023-08-30T08:00:22;99964.00;;;20.85;41.28
22000;BME280;11164;48.818;2.322;2023-08-30T08:02:47;99956.72;;;21.09;40.84
22000;BME280;11164;48.818;2.322;2023-08-30T08:05:13;99963.19;;;21.24;40.62
22000;BME280;11164;48.818;2.322;2023-08-30T08:07:39;99957.88;;;20.98;40.98
22000;BME280;11164;48.818;2.322;2023-08-30T08:10:06;99958.50;;;20.90;41.19
22000;BME280;11164;48.818;2.322;2023-08-30T08:12:32;99953.88;;;20.80;41.44
22000;BME280;11164;48.818;2.322;2023-08-30T08:14:58;99946.88;;;21.03;40.81
22000;BME280;11164;48.818;2.322;2023-08-30T08:17:23;99951.28;;;21.44;40.07
22000;BME280;11164;48.818;2.322;2023-08-30T08:19:49;99949.09;;;21.01;41.10
22000;BME280;11164;48.818;2.322;2023-08-30T08:22:14;99958.78;;;20.88;41.00
22000;BME280;11164;48.818;2.322;2023-08-30T08:24:41;99944.13;;;20.64;41.39
22000;BME280;11164;48.818;2.322;2023-08-30T08:27:06;99955.13;;;20.98;40.77
22000;BME280;11164;48.818;2.322;2023-08-30T08:29:31;99955.03;;;20.74;40.98
22000;BME280;11164;48.818;2.322;2023-08-30T08:31:57;99950.91;;;20.01;41.93
22000;BME280;11164;48.818;2.322;2023-08-30T08:34:22;99956.75;;;20.54;40.89
22000;BME280;11164;48.818;2.322;2023-08-30T08:36:47;99967.16;;;21.07;39.83
22000;BME280;11164;48.818;2.322;2023-08-30T08:39:13;99966.47;;;20.86;40.20
22000;BME280;11164;48.818;2.322;2023-08-30T08:41:40;99966.38;;;21.02;39.79
22000;BME280;11164;48.818;2.322;2023-08-30T08:44:07;99961.91;;;21.11;39.88
22000;BME280;11164;48.818;2.322;2023-08-30T08:46:34;99953.97;;;21.09;39.42
22000;BME280;11164;48.818;2.322;2023-08-30T08:49:08;99969.16;;;20.96;39.23
22000;BME280;11164;48.818;2.322;2023-08-30T08:51:34;99966.00;;;21.13;36.33
22000;BME280;11164;48.818;2.322;2023-08-30T08:54:02;99960.59;;;21.03;39.41
22000;BME280;11164;48.818;2.322;2023-08-30T08:56:30;99968.38;;;20.86;39.52
22000;BME280;11164;48.818;2.322;2023-08-30T08:58:56;99963.47;;;20.83;39.30
22000;BME280;11164;48.818;2.322;2023-08-30T09:01:22;99963.22;;;20.79;38.66
22000;BME280;11164;48.818;2.322;2023-08-30T09:03:50;99969.75;;;20.88;39.03
22000;BME280;11164;48.818;2.322;2023-08-30T09:06:15;99973.13;;;21.14;38.38
22000;BME280;11164;48.818;2.322;2023-08-30T09:08:40;99971.16;;;21.60;37.75
22000;BME280;11164;48.818;2.322;2023-08-30T09:11:05;99980.03;;;21.46;37.99
22000;BME280;11164;48.818;2.322;2023-08-30T09:13:31;99967.63;;;20.70;38.81
22000;BME280;11164;48.818;2.322;2023-08-30T09:15:57;99965.09;;;20.84;38.42
22000;BME280;11164;48.818;2.322;2023-08-30T09:18:24;99966.31;;;20.62;37.85
22000;BME280;11164;48.818;2.322;2023-08-30T09:20:53;99968.38;;;20.86;38.10
22000;BME280;11164;48.818;2.322;2023-08-30T09:23:22;99974.72;;;21.21;36.56
22000;BME280;11164;48.818;2.322;2023-08-30T09:25:54;99972.25;;;21.29;37.24
22000;BME280;11164;48.818;2.322;2023-08-30T09:28:19;99979.31;;;21.35;37.03
22000;BME280;11164;48.818;2.322;2023-08-30T09:30:51;99978.16;;;21.02;34.81
22000;BME280;11164;48.818;2.322;2023-08-30T09:33:37;99971.78;;;21.07;33.84
22000;BME280;11164;48.818;2.322;2023-08-30T09:36:02;99968.50;;;21.79;36.12
22000;BME280;11164;48.818;2.322;2023-08-30T09:38:36;99953.63;;;22.14;35.15
22000;BME280;11164;48.818;2.322;2023-08-30T09:41:03;99971.44;;;22.17;35.39
22000;BME280;11164;48.818;2.322;2023-08-30T09:43:29;99962.28;;;22.02;35.20
22000;BME280;11164;48.818;2.322;2023-08-30T09:45:54;99963.69;;;21.65;36.01
22000;BME280;11164;48.818;2.322;2023-08-30T09:48:21;99973.81;;;21.70;35.20
22000;BME280;11164;48.818;2.322;2023-08-30T09:50:53;99964.97;;;21.78;32.72
22000;BME280;11164;48.818;2.322;2023-08-30T09:53:21;99974.16;;;21.24;33.55
22000;BME280;11164;48.818;2.322;2023-08-30T09:55:50;99955.09;;;21.03;35.19
22000;BME280;11164;48.818;2.322;2023-08-30T09:58:16;99961.78;;;21.66;34.14
22000;BME280;11164;48.818;2.322;2023-08-30T10:00:43;99952.09;;;21.73;34.04
22000;BME280;11164;48.818;2.322;2023-08-30T10:03:08;99952.69;;;22.00;33.61
22000;BME280;11164;48.818;2.322;2023-08-30T10:05:35;99946.81;;;22.55;32.45
22000;BME280;11164;48.818;2.322;2023-08-30T10:08:01;99947.81;;;22.40;32.66
22000;BME280;11164;48.818;2.322;2023-08-30T10:10:30;99955.50;;;22.19;33.11
22000;BME280;11164;48.818;2.322;2023-08-30T10:12:56;99948.31;;;22.66;32.30
22000;BME280;11164;48.818;2.322;2023-08-30T10:15:23;99951.44;;;22.78;32.24
22000;BME280;11164;48.818;2.322;2023-08-30T10:17:54;99951.94;;;23.18;31.07
22000;BME280;11164;48.818;2.322;2023-08-30T10:20:21;99960.25;;;23.51;31.35
22000;BME280;11164;48.818;2.322;2023-08-30T10:22:47;99947.97;;;23.11;31.77
22000;BME280;11164;48.818;2.322;2023-08-30T10:25:20;99947.97;;;22.92;30.19
22000;BME280;11164;48.818;2.322;2023-08-30T10:27:48;99961.84;;;22.81;32.40
22000;BME280;11164;48.818;2.322;2023-08-30T10:30:15;99962.84;;;22.23;32.86
22000;BME280;11164;48.818;2.322;2023-08-30T10:32:43;99963.44;;;21.62;33.44
22000;BME280;11164;48.818;2.322;2023-08-30T10:35:12;99958.94;;;22.05;31.35
22000;BME280;11164;48.818;2.322;2023-08-30T10:37:38;99960.13;;;22.23;32.01
22000;BME280;11164;48.818;2.322;2023-08-30T10:40:05;99948.84;;;22.44;31.83
22000;BME280;11164;48.818;2.322;2023-08-30T10:42:31;99950.72;;;22.48;31.51
22000;BME280;11164;48.818;2.322;2023-08-30T10:45:01;99954.19;;;22.78;30.78
22000;BME280;11164;48.818;2.322;2023-08-30T10:47:28;99951.22;;;22.07;31.38
22000;BME280;11164;48.818;2.322;2023-08-30T10:49:59;99948.94;;;22.39;31.24
22000;BME280;11164;48.818;2.322;2023-08-30T10:52:26;99958.75;;;23.07;29.01
22000;BME280;11164;48.818;2.322;2023-08-30T10:54:52;99949.97;;;22.43;30.60
22000;BME280;11164;48.818;2.322;2023-08-30T10:57:24;99944.72;;;22.46;27.07
22000;BME280;11164;48.818;2.322;2023-08-30T11:02:33;99951.31;;;22.89;30.08
22000;BME280;11164;48.818;2.322;2023-08-30T11:04:59;99947.31;;;22.81;30.06
22000;BME280;11164;48.818;2.322;2023-08-30T11:07:25;99952.06;;;22.75;29.87
22000;BME280;11164;48.818;2.322;2023-08-30T11:09:51;99947.91;;;22.78;29.74
22000;BME280;11164;48.818;2.322;2023-08-30T11:12:18;99957.09;;;22.87;29.85
22000;BME280;11164;48.818;2.322;2023-08-30T11:14:44;99947.75;;;23.07;29.51
22000;BME280;11164;48.818;2.322;2023-08-30T11:17:10;99949.00;;;22.96;29.66
22000;BME280;11164;48.818;2.322;2023-08-30T11:19:35;99959.22;;;22.04;30.65
22000;BME280;11164;48.818;2.322;2023-08-30T11:22:00;99952.34;;;22.06;30.63
22000;BME280;11164;48.818;2.322;2023-08-30T11:24:26;99956.31;;;22.19;30.21
22000;BME280;11164;48.818;2.322;2023-08-30T11:26:55;99957.50;;;22.13;29.13
22000;BME280;11164;48.818;2.322;2023-08-30T11:29:20;99948.63;;;22.40;29.70
22000;BME280;11164;48.818;2.322;2023-08-30T11:31:46;99949.91;;;23.10;28.88
22000;BME280;11164;48.818;2.322;2023-08-30T11:34:12;99946.53;;;23.13;28.57
22000;BME280;11164;48.818;2.322;2023-08-30T11:36:38;99947.38;;;23.14;28.79
22000;BME280;11164;48.818;2.322;2023-08-30T11:39:03;99955.03;;;22.98;29.21
22000;BME280;11164;48.818;2.322;2023-08-30T11:41:29;99951.38;;;22.40;29.53
22000;BME280;11164;48.818;2.322;2023-08-30T11:43:58;99949.75;;;22.39;29.47
22000;BME280;11164;48.818;2.322;2023-08-30T11:46:23;99940.59;;;22.68;29.12
22000;BME280;11164;48.818;2.322;2023-08-30T11:48:50;99956.38;;;23.00;27.81
22000;BME280;11164;48.818;2.322;2023-08-30T11:51:16;99939.88;;;23.00;28.92
22000;BME280;11164;48.818;2.322;2023-08-30T11:53:43;99942.38;;;23.35;28.21
22000;BME280;11164;48.818;2.322;2023-08-30T11:56:09;99933.78;;;23.55;28.07
22000;BME280;11164;48.818;2.322;2023-08-30T11:58:35;99927.59;;;23.77;27.81
22000;BME280;11164;48.818;2.322;2023-08-30T12:01:02;99931.88;;;23.84;27.75
22000;BME280;11164;48.818;2.322;2023-08-30T12:03:27;99937.53;;;24.06;27.66
22000;BME280;11164;48.818;2.322;2023-08-30T12:05:57;99926.56;;;23.73;28.23
22000;BME280;11164;48.818;2.322;2023-08-30T12:08:24;99930.75;;;23.71;27.89
22000;BME280;11164;48.818;2.322;2023-08-30T12:10:50;99932.47;;;23.34;28.10
22000;BME280;11164;48.818;2.322;2023-08-30T12:13:26;99931.16;;;23.78;27.06
22000;BME280;11164;48.818;2.322;2023-08-30T12:15:53;99932.28;;;23.91;27.32
22000;BME280;11164;48.818;2.322;2023-08-30T12:18:23;99945.59;;;24.16;25.69
22000;BME280;11164;48.818;2.322;2023-08-30T12:20:55;99937.94;;;24.27;26.64
22000;BME280;11164;48.818;2.322;2023-08-30T12:23:22;99927.09;;;23.89;27.24
22000;BME280;11164;48.818;2.322;2023-08-30T12:26:08;99937.53;;;23.92;23.88
22000;BME280;11164;48.818;2.322;2023-08-30T12:28:41;99936.41;;;23.93;25.58
22000;BME280;11164;48.818;2.322;2023-08-30T12:31:09;99934.88;;;24.43;26.77
22000;BME280;11164;48.818;2.322;2023-08-30T12:33:36;99939.97;;;24.35;26.70
22000;BME280;11164;48.818;2.322;2023-08-30T12:36:02;99930.88;;;23.79;26.97
22000;BME280;11164;48.818;2.322;2023-08-30T12:38:32;99938.53;;;23.96;26.93
22000;BME280;11164;48.818;2.322;2023-08-30T12:40:58;99942.84;;;24.03;26.90
22000;BME280;11164;48.818;2.322;2023-08-30T12:43:24;99945.06;;;23.40;27.70
22000;BME280;11164;48.818;2.322;2023-08-30T12:45:50;99948.91;;;23.20;27.33
22000;BME280;11164;48.818;2.322;2023-08-30T12:48:17;99944.91;;;23.12;27.68
22000;BME280;11164;48.818;2.322;2023-08-30T12:50:44;99950.13;;;22.95;27.82
22000;BME280;11164;48.818;2.322;2023-08-30T12:53:10;99948.13;;;23.52;26.92
22000;BME280;11164;48.818;2.322;2023-08-30T12:55:36;99954.19;;;23.35;27.04
22000;BME280;11164;48.818;2.322;2023-08-30T12:58:02;99956.09;;;24.01;26.45
22000;BME280;11164;48.818;2.322;2023-08-30T13:00:30;99950.75;;;23.76;26.87